sensor_id;sensor_type;location;lat;lon;timestamp;pressure;altitude;pressure_sealevel;temperature;humidity
46836;BME280;32573;51.290;6.926;2023-03-21T00:01:50;100310.84;;;10.17;100.00
46836;BME280;32573;51.290;6.926;2023-03-21T00:04:19;100301.28;;;10.17;100.00
46836;BME280;32573;51.290;6.926;2023-03-21T00:06:50;100310.84;;;10.17;100.00
46836;BME280;32573;51.290;6.926;2023-03-21T00:09:19;100296.91;;;10.18;100.00
46836;BME280;32573;51.290;6.926;2023-03-21T00:11:47;100292.53;;;10.17;100.00
46836;BME280;32573;51.290;6.926;2023-03-21T00:14:16;100296.03;;;10.17;100.00
46836;BME280;32573;51.290;6.926;2023-03-21T00:16:46;100298.72;;;10.19;100.00
46836;BME280;32573;51.290;6.926;2023-03-21T00:19:17;100298.72;;;10.19;100.00
46836;BME280;32573;51.290;6.926;2023-03-21T00:21:47;100296.91;;;10.18;100.00
46836;BME280;32573;51.290;6.926;2023-03-21T00:24:36;100300.41;;;10.18;100.00
46836;BME280;32573;51.290;6.926;2023-03-21T00:27:05;100298.72;;;10.19;100.00
46836;BME280;32573;51.290;6.926;2023-03-21T00:29:54;100294.31;;;10.18;100.00
46836;BME280;32573;51.290;6.926;2023-03-21T00:32:23;100291.69;;;10.18;100.00
46836;BME280;32573;51.290;6.926;2023-03-21T00:34:52;100285.63;;;10.19;100.00
46836;BME280;32573;51.290;6.926;2023-03-21T00:37:40;100283.03;;;10.19;100.00
46836;BME280;32573;51.290;6.926;2023-03-21T00:40:11;100277.78;;;10.19;100.00
46836;BME280;32573;51.290;6.926;2023-03-21T00:42:57;100276.94;;;10.20;100.00
46836;BME280;32573;51.290;6.926;2023-03-21T00:45:25;100282.16;;;10.20;100.00
46836;BME280;32573;51.290;6.926;2023-03-21T00:47:54;100273.44;;;10.19;100.00
46836;BME280;32573;51.290;6.926;2023-03-21T00:50:23;100275.19;;;10.19;100.00
46836;BME280;32573;51.290;6.926;2023-03-21T00:52:51;100268.22;;;10.19;100.00
46836;BME280;32573;51.290;6.926;2023-03-21T00:55:21;100268.22;;;10.19;100.00
46836;BME280;32573;51.290;6.926;2023-03-21T00:57:50;100267.34;;;10.19;100.00
46836;BME280;32573;51.290;6.926;2023-03-21T01:00:28;100266.47;;;10.20;100.00
46836;BME280;32573;51.290;6.926;2023-03-21T01:02:59;100262.97;;;10.19;100.00
46836;BME280;32573;51.290;6.926;2023-03-21T01:05:49;100255.13;;;10.19;100.00
46836;BME280;32573;51.290;6.926;2023-03-21T01:08:33;100251.63;;;10.19;100.00
46836;BME280;32573;51.290;6.926;2023-03-21T01:11:22;100262.09;;;10.19;100.00
46836;BME280;32573;51.290;6.926;2023-03-21T01:13:51;100251.63;;;10.19;100.00
46836;BME280;32573;51.290;6.926;2023-03-21T01:16:30;100263.84;;;10.20;100.00
46836;BME280;32573;51.290;6.926;2023-03-21T01:18:59;100251.63;;;10.19;100.00
46836;BME280;32573;51.290;6.926;2023-03-21T01:21:33;100258.63;;;10.20;100.00
46836;BME280;32573;51.290;6.926;2023-03-21T01:24:02;100256.88;;;10.19;100.00
46836;BME280;32573;51.290;6.926;2023-03-21T01:26:32;100249.03;;;10.19;100.00
46836;BME280;32573;51.290;6.926;2023-03-21T01:29:01;100249.03;;;10.19;100.00
46836;BME280;32573;51.290;6.926;2023-03-21T01:31:29;100241.19;;;10.19;100.00
46836;BME280;32573;51.290;6.926;2023-03-21T01:33:58;100242.94;;;10.20;100.00
46836;BME280;32573;51.290;6.926;2023-03-21T01:36:26;100242.06;;;10.19;100.00
46836;BME280;32573;51.290;6.926;2023-03-21T01:39:00;100246.44;;;10.20;100.00
46836;BME280;32573;51.290;6.926;2023-03-21T01:41:33;100244.69;;;10.21;100.00
46836;BME280;32573;51.290;6.926;2023-03-21T01:44:25;100238.66;;;10.22;100.00
46836;BME280;32573;51.290;6.926;2023-03-21T01:46:54;100228.22;;;10.23;100.00
46836;BME280;32573;51.290;6.926;2023-03-21T01:49:59;100231.75;;;10.25;100.00
46836;BME280;32573;51.290;6.926;2023-03-21T01:52:37;100242.22;;;10.25;100.00
46836;BME280;32573;51.290;6.926;2023-03-21T01:55:17;100229.22;;;10.27;100.00
46836;BME280;32573;51.290;6.926;2023-03-21T01:57:55;100231.00;;;10.28;100.00
46836;BME280;32573;51.290;6.926;2023-03-21T02:01:08;100228.31;;;10.26;100.00
46836;BME280;32573;51.290;6.926;2023-03-21T02:03:45;100227.47;;;10.27;100.00
46836;BME280;32573;51.290;6.926;2023-03-21T02:06:43;100223.97;;;10.27;100.00
46836;BME280;32573;51.290;6.926;2023-03-21T02:09:46;100223.97;;;10.27;100.00
46836;BME280;32573;51.290;6.926;2023-03-21T02:12:19;100227.47;;;10.27;100.00
46836;BME280;32573;51.290;6.926;2023-03-21T02:14:50;100217.84;;;10.26;100.00
46836;BME280;32573;51.290;6.926;2023-03-21T02:17:58;100221.34;;;10.27;100.00
46836;BME280;32573;51.290;6.926;2023-03-21T02:20:57;100208.28;;;10.27;100.00
46836;BME280;32573;51.290;6.926;2023-03-21T02:27:03;100210.91;;;10.27;100.00
46836;BME280;32573;51.290;6.926;2023-03-21T02:29:49;100206.47;;;10.26;100.00
46836;BME280;32573;51.290;6.926;2023-03-21T02:32:36;100202.09;;;10.25;100.00
46836;BME280;32573;51.290;6.926;2023-03-21T02:35:24;100200.38;;;10.25;100.00
46836;BME280;32573;51.290;6.926;2023-03-21T02:37:58;100197.72;;;10.24;100.00
46836;BME280;32573;51.290;6.926;2023-03-21T02:40:33;100199.50;;;10.25;100.00
46836;BME280;32573;51.290;6.926;2023-03-21T02:43:09;100185.53;;;10.24;100.00
46836;BME280;32573;51.290;6.926;2023-03-21T02:45:52;100178.56;;;10.25;100.00
46836;BME280;32573;51.290;6.926;2023-03-21T02:48:25;100181.19;;;10.25;100.00
46836;BME280;32573;51.290;6.926;2023-03-21T02:51:17;100171.59;;;10.25;100.00
46836;BME280;32573;51.290;6.926;2023-03-21T02:53:51;100173.34;;;10.25;100.00
46836;BME280;32573;51.290;6.926;2023-03-21T02:56:43;100174.22;;;10.25;100.00
46836;BME280;32573;51.290;6.926;2023-03-21T02:59:13;100175.09;;;10.26;100.00
46836;BME280;32573;51.290;6.926;2023-03-21T03:01:43;100170.72;;;10.25;100.00
46836;BME280;32573;51.290;6.926;2023-03-21T03:04:19;100174.22;;;10.25;100.00
46836;BME280;32573;51.290;6.926;2023-03-21T03:07:04;100170.72;;;10.25;100.00
46836;BME280;32573;51.290;6.926;2023-03-21T03:10:04;100167.22;;;10.24;100.00
46836;BME280;32573;51.290;6.926;2023-03-21T03:12:44;100166.34;;;10.24;100.00
46836;BME280;32573;51.290;6.926;2023-03-21T03:15:23;100165.50;;;10.25;100.00
46836;BME280;32573;51.290;6.926;2023-03-21T03:18:00;100166.34;;;10.24;100.00
46836;BME280;32573;51.290;6.926;2023-03-21T03:20:41;100170.66;;;10.23;100.00
46836;BME280;32573;51.290;6.926;2023-03-21T03:23:20;100167.16;;;10.23;100.00
46836;BME280;32573;51.290;6.926;2023-03-21T03:25:56;100168.03;;;10.22;100.00
46836;BME280;32573;51.290;6.926;2023-03-21T03:28:29;100162.78;;;10.22;100.00
46836;BME280;32573;51.290;6.926;2023-03-21T03:31:00;100158.38;;;10.21;100.00
46836;BME280;32573;51.290;6.926;2023-03-21T03:33:45;100154.00;;;10.20;100.00
46836;BME280;32573;51.290;6.926;2023-03-21T03:36:15;100147.00;;;10.19;100.00
46836;BME280;32573;51.290;6.926;2023-03-21T03:39:00;100153.91;;;10.17;100.00
46836;BME280;32573;51.290;6.926;2023-03-21T03:41:34;100140.78;;;10.15;100.00
46836;BME280;32573;51.290;6.926;2023-03-21T03:44:29;100140.69;;;10.12;100.00
46836;BME280;32573;51.290;6.926;2023-03-21T03:47:05;100148.50;;;10.10;100.00
46836;BME280;32573;51.290;6.926;2023-03-21T03:49:41;100138.81;;;10.08;100.00
46836;BME280;32573;51.290;6.926;2023-03-21T03:52:15;100139.63;;;10.05;100.00
46836;BME280;32573;51.290;6.926;2023-03-21T03:54:52;100135.16;;;10.01;100.00
46836;BME280;32573;51.290;6.926;2023-03-21T03:57:25;100144.72;;;10.01;100.00
46836;BME280;32573;51.290;6.926;2023-03-21T03:59:55;100142.03;;;9.98;100.00
46836;BME280;32573;51.290;6.926;2023-03-21T04:02:43;100137.59;;;9.95;100.00
46836;BME280;32573;51.290;6.926;2023-03-21T04:05:15;100141.94;;;9.94;100.00
46836;BME280;32573;51.290;6.926;2023-03-21T04:07:48;100140.13;;;9.92;100.00
46836;BME280;32573;51.290;6.926;2023-03-21T04:10:20;100135.75;;;9.91;100.00
46836;BME280;32573;51.290;6.926;2023-03-21T04:12:50;100126.97;;;9.90;100.00
46836;BME280;32573;51.290;6.926;2023-03-21T04:15:39;100132.22;;;9.90;100.00
46836;BME280;32573;51.290;6.926;2023-03-21T04:18:13;100127.84;;;9.89;100.00
46836;BME280;32573;51.290;6.926;2023-03-21T04:20:42;100130.44;;;9.89;100.00
46836;BME280;32573;51.290;6.926;2023-03-21T04:23:12;100118.25;;;9.90;100.00
46836;BME280;32573;51.290;6.926;2023-03-21T04:25:44;100127.91;;;9.91;100.00
46836;BME280;32573;51.290;6.926;2023-03-21T04:28:29;100118.25;;;9.90;100.00
46836;BME280;32573;51.290;6.926;2023-03-21T04:31:04;100125.28;;;9.91;100.00
46836;BME280;32573;51.290;6.926;2023-03-21T04:33:51;100116.50;;;9.89;100.00
46836;BME280;32573;51.290;6.926;2023-03-21T04:36:22;100116.50;;;9.89;100.00
46836;BME280;32573;51.290;6.926;2023-03-21T04:39:00;100116.50;;;9.89;100.00
46836;BME280;32573;51.290;6.926;2023-03-21T04:41:31;100111.28;;;9.89;100.00
46836;BME280;32573;51.290;6.926;2023-03-21T04:44:01;100109.47;;;9.88;100.00
46836;BME280;32573;51.290;6.926;2023-03-21T04:46:30;100109.47;;;9.88;100.00
46836;BME280;32573;51.290;6.926;2023-03-21T04:49:00;100123.47;;;9.88;100.00
46836;BME280;32573;51.290;6.926;2023-03-21T04:51:28;100114.72;;;9.88;100.00
46836;BME280;32573;51.290;6.926;2023-03-21T04:53:57;100117.31;;;9.88;100.00
46836;BME280;32573;51.290;6.926;2023-03-21T04:56:26;100111.22;;;9.87;100.00
46836;BME280;32573;51.290;6.926;2023-03-21T04:59:01;100113.00;;;9.88;100.00
46836;BME280;32573;51.290;6.926;2023-03-21T05:01:31;100118.25;;;9.88;100.00
46836;BME280;32573;51.290;6.926;2023-03-21T05:04:00;100118.25;;;9.90;100.00
46836;BME280;32573;51.290;6.926;2023-03-21T05:06:33;100116.50;;;9.89;100.00
46836;BME280;32573;51.290;6.926;2023-03-21T05:09:03;100113.00;;;9.88;100.00
46836;BME280;32573;51.290;6.926;2023-03-21T05:11:36;100109.53;;;9.89;100.00
46836;BME280;32573;51.290;6.926;2023-03-21T05:14:08;100102.56;;;9.90;100.00
46836;BME280;32573;51.290;6.926;2023-03-21T05:16:38;100101.69;;;9.89;100.00
46836;BME280;32573;51.290;6.926;2023-03-21T05:19:15;100102.56;;;9.90;100.00
46836;BME280;32573;51.290;6.926;2023-03-21T05:21:46;100101.69;;;9.89;100.00
46836;BME280;32573;51.290;6.926;2023-03-21T05:24:20;100097.31;;;9.88;100.00
46836;BME280;32573;51.290;6.926;2023-03-21T05:26:50;100107.78;;;9.88;100.00
46836;BME280;32573;51.290;6.926;2023-03-21T05:29:23;100108.66;;;9.89;100.00
46836;BME280;32573;51.290;6.926;2023-03-21T05:31:58;100106.00;;;9.87;100.00
46836;BME280;32573;51.290;6.926;2023-03-21T05:34:28;100104.25;;;9.88;100.00
46836;BME280;32573;51.290;6.926;2023-03-21T05:36:56;100094.59;;;9.85;100.00
46836;BME280;32573;51.290;6.926;2023-03-21T05:39:34;100098.09;;;9.86;100.00
46836;BME280;32573;51.290;6.926;2023-03-21T05:42:08;100095.47;;;9.86;100.00
46836;BME280;32573;51.290;6.926;2023-03-21T05:44:38;100101.56;;;9.85;100.00
46836;BME280;32573;51.290;6.926;2023-03-21T05:47:10;100098.06;;;9.84;100.00
46836;BME280;32573;51.290;6.926;2023-03-21T05:49:43;100098.94;;;9.85;100.00
46836;BME280;32573;51.290;6.926;2023-03-21T05:52:14;100097.13;;;9.82;100.00
46836;BME280;32573;51.290;6.926;2023-03-21T05:54:44;100102.41;;;9.84;100.00
46836;BME280;32573;51.290;6.926;2023-03-21T05:57:13;100104.16;;;9.85;100.00
46836;BME280;32573;51.290;6.926;2023-03-21T06:00:06;100106.78;;;9.85;100.00
46836;BME280;32573;51.290;6.926;2023-03-21T06:02:50;100100.63;;;9.83;100.00
46836;BME280;32573;51.290;6.926;2023-03-21T06:05:37;100110.13;;;9.81;100.00
46836;BME280;32573;51.290;6.926;2023-03-21T06:08:11;100104.03;;;9.80;100.00
46836;BME280;32573;51.290;6.926;2023-03-21T06:10:40;100100.53;;;9.80;100.00
46836;BME280;32573;51.290;6.926;2023-03-21T06:13:09;100104.09;;;9.82;100.00
46836;BME280;32573;51.290;6.926;2023-03-21T06:15:38;100102.28;;;9.81;100.00
46836;BME280;32573;51.290;6.926;2023-03-21T06:18:19;100102.28;;;9.81;100.00
46836;BME280;32573;51.290;6.926;2023-03-21T06:20:59;100105.81;;;9.81;100.00
46836;BME280;32573;51.290;6.926;2023-03-21T06:23:28;100111.03;;;9.81;100.00
46836;BME280;32573;51.290;6.926;2023-03-21T06:25:57;100104.09;;;9.82;100.00
46836;BME280;32573;51.290;6.926;2023-03-21T06:28:26;100105.81;;;9.81;100.00
46836;BME280;32573;51.290;6.926;2023-03-21T06:30:56;100099.69;;;9.81;100.00
46836;BME280;32573;51.290;6.926;2023-03-21T06:33:26;100107.59;;;9.82;100.00
46836;BME280;32573;51.290;6.926;2023-03-21T06:35:56;100097.06;;;9.81;100.00
46836;BME280;32573;51.290;6.926;2023-03-21T06:38:25;100104.09;;;9.82;100.00
46836;BME280;32573;51.290;6.926;2023-03-21T06:40:54;100102.28;;;9.81;100.00
46836;BME280;32573;51.290;6.926;2023-03-21T06:43:24;100104.09;;;9.82;100.00
46836;BME280;32573;51.290;6.926;2023-03-21T06:45:53;100113.66;;;9.81;100.00
46836;BME280;32573;51.290;6.926;2023-03-21T06:48:23;100098.84;;;9.82;100.00
46836;BME280;32573;51.290;6.926;2023-03-21T06:50:52;100104.97;;;9.82;100.00
46836;BME280;32573;51.290;6.926;2023-03-21T06:53:24;100104.09;;;9.83;100.00
46836;BME280;32573;51.290;6.926;2023-03-21T06:56:13;100099.78;;;9.84;100.00
46836;BME280;32573;51.290;6.926;2023-03-21T06:58:43;100101.56;;;9.85;100.00
46836;BME280;32573;51.290;6.926;2023-03-21T07:01:23;100100.69;;;9.86;100.00
46836;BME280;32573;51.290;6.926;2023-03-21T07:04:02;100105.09;;;9.87;100.00
46836;BME280;32573;51.290;6.926;2023-03-21T07:06:31;100109.47;;;9.88;100.00
46836;BME280;32573;51.290;6.926;2023-03-21T07:09:00;100108.66;;;9.89;100.00
46836;BME280;32573;51.290;6.926;2023-03-21T07:11:31;100113.88;;;9.89;100.00
46836;BME280;32573;51.290;6.926;2023-03-21T07:14:00;100120.88;;;9.90;100.00
46836;BME280;32573;51.290;6.926;2023-03-21T07:16:29;100122.66;;;9.91;100.00
46836;BME280;32573;51.290;6.926;2023-03-21T07:18:57;100120.06;;;9.91;100.00
46836;BME280;32573;51.290;6.926;2023-03-21T07:21:27;100122.69;;;9.92;100.00
46836;BME280;32573;51.290;6.926;2023-03-21T07:23:56;100127.13;;;9.95;100.00
46836;BME280;32573;51.290;6.926;2023-03-21T07:26:25;100125.44;;;9.97;100.00
46836;BME280;32573;51.290;6.926;2023-03-21T07:28:53;100130.75;;;9.99;100.00
46836;BME280;32573;51.290;6.926;2023-03-21T07:31:21;100128.16;;;10.00;100.00
46836;BME280;32573;51.290;6.926;2023-03-21T07:33:52;100128.22;;;10.02;100.00
46836;BME280;32573;51.290;6.926;2023-03-21T07:36:22;100123.00;;;10.03;100.00
46836;BME280;32573;51.290;6.926;2023-03-21T07:38:52;100123.91;;;10.04;100.00
46836;BME280;32573;51.290;6.926;2023-03-21T07:41:23;100123.94;;;10.05;100.00
46836;BME280;32573;51.290;6.926;2023-03-21T07:43:51;100119.66;;;10.07;100.00
46836;BME280;32573;51.290;6.926;2023-03-21T07:46:20;100103.13;;;10.08;100.00
46836;BME280;32573;51.290;6.926;2023-03-21T07:48:48;100106.66;;;10.10;100.00
46836;BME280;32573;51.290;6.926;2023-03-21T07:51:17;100096.19;;;10.10;100.00
46836;BME280;32573;51.290;6.926;2023-03-21T07:53:45;100101.47;;;10.12;100.00
46836;BME280;32573;51.290;6.926;2023-03-21T07:56:16;100105.91;;;10.14;100.00
46836;BME280;32573;51.290;6.926;2023-03-21T07:58:44;100103.38;;;10.18;100.00
46836;BME280;32573;51.290;6.926;2023-03-21T08:01:13;100105.16;;;10.19;100.00
46836;BME280;32573;51.290;6.926;2023-03-21T08:03:41;100102.63;;;10.22;100.00
46836;BME280;32573;51.290;6.926;2023-03-21T08:06:10;100103.56;;;10.24;100.00
46836;BME280;32573;51.290;6.926;2023-03-21T08:08:38;100101.84;;;10.26;100.00
46836;BME280;32573;51.290;6.926;2023-03-21T08:11:07;100103.63;;;10.27;100.00
46836;BME280;32573;51.290;6.926;2023-03-21T08:13:37;100107.22;;;10.29;100.00
46836;BME280;32573;51.290;6.926;2023-03-21T08:16:06;100108.97;;;10.30;100.00
46836;BME280;32573;51.290;6.926;2023-03-21T08:18:35;100107.25;;;10.30;100.00
46836;BME280;32573;51.290;6.926;2023-03-21T08:21:03;100113.41;;;10.31;100.00
46836;BME280;32573;51.290;6.926;2023-03-21T08:23:34;100118.63;;;10.31;100.00
46836;BME280;32573;51.290;6.926;2023-03-21T08:26:03;100112.53;;;10.32;100.00
46836;BME280;32573;51.290;6.926;2023-03-21T08:28:32;100121.31;;;10.34;100.00
46836;BME280;32573;51.290;6.926;2023-03-21T08:31:06;100113.47;;;10.34;100.00
46836;BME280;32573;51.290;6.926;2023-03-21T08:33:34;100114.34;;;10.34;100.00
46836;BME280;32573;51.290;6.926;2023-03-21T08:36:04;100116.09;;;10.34;100.00
46836;BME280;32573;51.290;6.926;2023-03-21T08:38:33;100111.72;;;10.34;100.00
46836;BME280;32573;51.290;6.926;2023-03-21T08:41:02;100125.75;;;10.36;100.00
46836;BME280;32573;51.290;6.926;2023-03-21T08:43:30;100123.16;;;10.38;100.00
46836;BME280;32573;51.290;6.926;2023-03-21T08:45:59;100124.06;;;10.39;100.00
46836;BME280;32573;51.290;6.926;2023-03-21T08:48:31;100124.09;;;10.40;100.00
46836;BME280;32573;51.290;6.926;2023-03-21T08:51:00;100121.47;;;10.40;100.00
46836;BME280;32573;51.290;6.926;2023-03-21T08:53:28;100125.03;;;10.42;100.00
46836;BME280;32573;51.290;6.926;2023-03-21T08:55:56;100122.41;;;10.42;100.00
46836;BME280;32573;51.290;6.926;2023-03-21T08:58:25;100115.44;;;10.43;100.00
46836;BME280;32573;51.290;6.926;2023-03-21T09:00:54;100112.00;;;10.44;100.00
46836;BME280;32573;51.290;6.926;2023-03-21T09:03:22;100112.03;;;10.45;100.00
46836;BME280;32573;51.290;6.926;2023-03-21T09:05:54;100109.41;;;10.45;100.00
46836;BME280;32573;51.290;6.926;2023-03-21T09:08:25;100108.59;;;10.48;100.00
46836;BME280;32573;51.290;6.926;2023-03-21T09:10:54;100109.50;;;10.48;100.00
46836;BME280;32573;51.290;6.926;2023-03-21T09:13:23;100109.59;;;10.51;100.00
46836;BME280;32573;51.290;6.926;2023-03-21T09:15:51;100107.84;;;10.52;100.00
46836;BME280;32573;51.290;6.926;2023-03-21T09:18:20;100100.88;;;10.52;100.00
46836;BME280;32573;51.290;6.926;2023-03-21T09:21:10;100099.25;;;10.56;100.00
46836;BME280;32573;51.290;6.926;2023-03-21T09:23:39;100101.94;;;10.59;100.00
46836;BME280;32573;51.290;6.926;2023-03-21T09:26:08;100102.91;;;10.63;100.00
46836;BME280;32573;51.290;6.926;2023-03-21T09:28:36;100102.97;;;10.66;100.00
46836;BME280;32573;51.290;6.926;2023-03-21T09:31:06;100100.41;;;10.67;100.00
46836;BME280;32573;51.290;6.926;2023-03-21T09:33:38;100103.09;;;10.70;100.00
46836;BME280;32573;51.290;6.926;2023-03-21T09:36:09;100103.16;;;10.72;100.00
46836;BME280;32573;51.290;6.926;2023-03-21T09:38:40;100107.50;;;10.71;100.00
46836;BME280;32573;51.290;6.926;2023-03-21T09:41:21;100111.06;;;10.73;100.00
46836;BME280;32573;51.290;6.926;2023-03-21T09:44:04;100104.91;;;10.73;100.00
46836;BME280;32573;51.290;6.926;2023-03-21T09:46:41;100108.44;;;10.75;100.00
46836;BME280;32573;51.290;6.926;2023-03-21T09:49:16;100104.16;;;10.77;100.00
46836;BME280;32573;51.290;6.926;2023-03-21T09:51:49;100106.84;;;10.80;100.00
46836;BME280;32573;51.290;6.926;2023-03-21T09:54:22;100115.63;;;10.82;100.00
46836;BME280;32573;51.290;6.926;2023-03-21T09:56:55;100099.06;;;10.83;100.00
46836;BME280;32573;51.290;6.926;2023-03-21T09:59:30;100100.00;;;10.85;100.00
46836;BME280;32573;51.290;6.926;2023-03-21T10:02:03;100100.00;;;10.85;100.00
46836;BME280;32573;51.290;6.926;2023-03-21T10:04:40;100093.06;;;10.87;100.00
46836;BME280;32573;51.290;6.926;2023-03-21T10:07:12;100101.78;;;10.86;100.00
46836;BME280;32573;51.290;6.926;2023-03-21T10:09:44;100091.31;;;10.86;100.00
46836;BME280;32573;51.290;6.926;2023-03-21T10:12:24;100096.53;;;10.86;100.00
46836;BME280;32573;51.290;6.926;2023-03-21T10:14:58;100087.81;;;10.87;100.00
46836;BME280;32573;51.290;6.926;2023-03-21T10:17:30;100092.25;;;10.90;100.00
46836;BME280;32573;51.290;6.926;2023-03-21T10:20:06;100089.69;;;10.91;100.00
46836;BME280;32573;51.290;6.926;2023-03-21T10:22:41;100090.63;;;10.93;100.00
46836;BME280;32573;51.290;6.926;2023-03-21T10:25:14;100086.28;;;10.95;100.00
46836;BME280;32573;51.290;6.926;2023-03-21T10:27:43;100085.44;;;10.96;100.00
46836;BME280;32573;51.290;6.926;2023-03-21T10:30:22;100077.59;;;10.98;100.00
46836;BME280;32573;51.290;6.926;2023-03-21T10:32:53;100069.75;;;10.98;100.00
46836;BME280;32573;51.290;6.926;2023-03-21T10:35:25;100073.31;;;11.00;100.00
46836;BME280;32573;51.290;6.926;2023-03-21T10:37:55;100068.06;;;11.00;100.00
46836;BME280;32573;51.290;6.926;2023-03-21T10:40:24;100058.47;;;11.00;100.00
46836;BME280;32573;51.290;6.926;2023-03-21T10:42:54;100050.66;;;11.02;100.00
46836;BME280;32573;51.290;6.926;2023-03-21T10:45:23;100041.94;;;11.03;100.00
46836;BME280;32573;51.290;6.926;2023-03-21T10:47:51;100042.91;;;11.07;100.00
46836;BME280;32573;51.290;6.926;2023-03-21T10:50:21;100035.97;;;11.09;100.00
46836;BME280;32573;51.290;6.926;2023-03-21T10:52:56;100032.56;;;11.13;100.00
46836;BME280;32573;51.290;6.926;2023-03-21T10:55:28;100027.44;;;11.16;100.00
46836;BME280;32573;51.290;6.926;2023-03-21T10:58:00;100023.09;;;11.18;100.00
46836;BME280;32573;51.290;6.926;2023-03-21T11:00:36;100024.06;;;11.21;100.00
46836;BME280;32573;51.290;6.926;2023-03-21T11:03:19;100017.13;;;11.25;100.00
46836;BME280;32573;51.290;6.926;2023-03-21T11:05:52;100005.03;;;11.30;100.00
46836;BME280;32573;51.290;6.926;2023-03-21T11:08:24;99997.25;;;11.35;100.00
46836;BME280;32573;51.290;6.926;2023-03-21T11:10:59;99988.66;;;11.40;100.00
46836;BME280;32573;51.290;6.926;2023-03-21T11:13:33;99990.56;;;11.48;100.00
46836;BME280;32573;51.290;6.926;2023-03-21T11:16:06;99987.22;;;11.55;100.00
46836;BME280;32573;51.290;6.926;2023-03-21T11:18:39;99994.34;;;11.62;100.00
46836;BME280;32573;51.290;6.926;2023-03-21T11:21:09;99996.22;;;11.68;100.00
46836;BME280;32573;51.290;6.926;2023-03-21T11:23:42;99988.50;;;11.74;100.00
46836;BME280;32573;51.290;6.926;2023-03-21T11:26:18;99988.59;;;11.78;100.00
46836;BME280;32573;51.290;6.926;2023-03-21T11:28:50;99991.31;;;11.84;100.00
46836;BME280;32573;51.290;6.926;2023-03-21T11:31:19;99982.66;;;11.87;100.00
46836;BME280;32573;51.290;6.926;2023-03-21T11:33:52;99987.13;;;11.91;100.00
46836;BME280;32573;51.290;6.926;2023-03-21T11:36:31;99987.22;;;11.96;100.00
46836;BME280;32573;51.290;6.926;2023-03-21T11:39:13;99991.63;;;11.98;100.00
46836;BME280;32573;51.290;6.926;2023-03-21T11:41:46;99975.06;;;12.01;100.00
46836;BME280;32573;51.290;6.926;2023-03-21T11:44:28;99983.81;;;12.03;100.00
46836;BME280;32573;51.290;6.926;2023-03-21T11:46:57;99973.41;;;12.06;100.00
46836;BME280;32573;51.290;6.926;2023-03-21T11:49:25;99973.41;;;12.06;100.00
46836;BME280;32573;51.290;6.926;2023-03-21T11:52:02;99985.66;;;12.07;100.00
46836;BME280;32573;51.290;6.926;2023-03-21T11:54:43;99976.91;;;12.08;100.00
46836;BME280;32573;51.290;6.926;2023-03-21T11:57:21;99970.84;;;12.09;100.00
46836;BME280;32573;51.290;6.926;2023-03-21T11:59:59;99958.56;;;12.08;100.00
46836;BME280;32573;51.290;6.926;2023-03-21T12:05:34;99957.66;;;12.06;100.00
46836;BME280;32573;51.290;6.926;2023-03-21T12:08:08;99952.44;;;12.06;100.00
46836;BME280;32573;51.290;6.926;2023-03-21T12:10:47;99952.44;;;12.06;100.00
46836;BME280;32573;51.290;6.926;2023-03-21T12:13:33;99957.63;;;12.04;100.00
46836;BME280;32573;51.290;6.926;2023-03-21T12:16:13;99969.00;;;12.03;100.00
46836;BME280;32573;51.290;6.926;2023-03-21T12:19:04;99963.66;;;12.00;100.00
46836;BME280;32573;51.290;6.926;2023-03-21T12:21:40;99974.16;;;11.99;100.00
46836;BME280;32573;51.290;6.926;2023-03-21T12:24:16;99973.22;;;11.97;100.00
46836;BME280;32573;51.290;6.926;2023-03-21T12:26:53;99969.69;;;11.95;100.00
46836;BME280;32573;51.290;6.926;2023-03-21T12:29:35;99962.69;;;11.94;100.00
46836;BME280;32573;51.290;6.926;2023-03-21T12:32:17;99964.38;;;11.92;100.00
46836;BME280;32573;51.290;6.926;2023-03-21T12:35:05;99965.19;;;11.87;100.00
46836;BME280;32573;51.290;6.926;2023-03-21T12:37:40;99964.16;;;11.82;100.00
46836;BME280;32573;51.290;6.926;2023-03-21T12:40:23;99970.22;;;11.78;100.00
46836;BME280;32573;51.290;6.926;2023-03-21T12:43:04;99953.53;;;11.73;100.00
46836;BME280;32573;51.290;6.926;2023-03-21T12:45:41;99960.47;;;11.71;100.00
46836;BME280;32573;51.290;6.926;2023-03-21T12:48:18;99961.31;;;11.70;100.00
46836;BME280;32573;51.290;6.926;2023-03-21T12:50:51;99949.97;;;11.71;100.00
46836;BME280;32573;51.290;6.926;2023-03-21T12:53:33;99946.50;;;11.72;100.00
46836;BME280;32573;51.290;6.926;2023-03-21T12:56:06;99941.28;;;11.74;100.00
46836;BME280;32573;51.290;6.926;2023-03-21T12:58:43;99937.84;;;11.76;100.00
46836;BME280;32573;51.290;6.926;2023-03-21T13:01:15;99923.88;;;11.77;100.00
46836;BME280;32573;51.290;6.926;2023-03-21T13:03:50;99921.28;;;11.79;100.00
46836;BME280;32573;51.290;6.926;2023-03-21T13:06:23;99925.69;;;11.81;100.00
46836;BME280;32573;51.290;6.926;2023-03-21T13:08:58;99925.69;;;11.81;100.00
46836;BME280;32573;51.290;6.926;2023-03-21T13:11:29;99916.03;;;11.79;100.00
46836;BME280;32573;51.290;6.926;2023-03-21T13:14:03;99904.66;;;11.78;100.00
46836;BME280;32573;51.290;6.926;2023-03-21T13:16:35;99897.63;;;11.77;100.00
46836;BME280;32573;51.290;6.926;2023-03-21T13:19:12;99908.13;;;11.77;100.00
46836;BME280;32573;51.290;6.926;2023-03-21T13:21:53;99890.66;;;11.76;100.00
46836;BME280;32573;51.290;6.926;2023-03-21T13:24:27;99889.78;;;11.76;100.00
46836;BME280;32573;51.290;6.926;2023-03-21T13:27:02;99884.47;;;11.74;100.00
46836;BME280;32573;51.290;6.926;2023-03-21T13:29:41;99873.13;;;11.75;100.00